Time;durP1;ratioP1;P1;durP2;ratioP2;P2;SDS_P1;SDS_P2;PMS_P1;PMS_P2;Temp;Humidity;BMP_temperature;BMP_pressure;BME280_temperature;BME280_humidity;BME280_pressure;Samples;Min_cycle;Max_cycle;Signal;HPM_P1;HPM_P2
2023/03/09 00:00:10;;;;;;;9.60;4.23;;;12.80;60.80;;;;;;6203728;23;20175;-80
2023/03/09 00:02:38;;;;;;;7.67;3.53;;;12.80;60.80;;;;;;6208778;23;20535;-78
2023/03/09 00:05:11;;;;;;;7.13;3.67;;;12.70;60.80;;;;;;6202598;23;20229;-79
2023/03/09 00:07:40;;;;;;;8.53;4.07;;;12.70;60.80;;;;;;6202912;23;20628;-78
2023/03/09 00:10:12;;;;;;;10.27;4.40;;;12.70;60.80;;;;;;6204884;23;20199;-79
2023/03/09 00:12:40;;;;;;;7.33;4.20;;;12.70;60.80;;;;;;6204813;23;20600;-79
2023/03/09 00:15:10;;;;;;;8.37;4.20;;;12.70;60.90;;;;;;6206094;23;20175;-79
2023/03/09 00:17:39;;;;;;;6.77;4.00;;;12.70;60.90;;;;;;6203659;23;20742;-79
2023/03/09 00:20:16;;;;;;;8.17;4.00;;;12.60;60.90;;;;;;6203345;23;20179;-79
2023/03/09 00:22:50;;;;;;;8.73;3.97;;;12.60;61.00;;;;;;6202421;23;20557;-79
2023/03/09 00:25:20;;;;;;;9.77;3.63;;;12.60;60.90;;;;;;6204058;23;20163;-79
2023/03/09 00:27:50;;;;;;;8.73;4.13;;;12.70;60.80;;;;;;6203938;23;20163;-79
2023/03/09 00:30:19;;;;;;;10.93;4.47;;;12.60;60.70;;;;;;6205669;23;20174;-79
2023/03/09 00:32:48;;;;;;;9.33;5.03;;;12.60;60.90;;;;;;6203198;23;20591;-78
2023/03/09 00:35:19;;;;;;;8.30;3.97;;;12.70;61.00;;;;;;6202193;23;20193;-79
2023/03/09 00:37:49;;;;;;;9.50;4.53;;;12.60;61.20;;;;;;6204792;23;20769;-80
2023/03/09 00:40:18;;;;;;;12.10;4.80;;;12.60;61.20;;;;;;6202120;23;20206;-79
2023/03/09 00:42:47;;;;;;;9.70;4.57;;;12.60;61.20;;;;;;6201242;23;20175;-78
2023/03/09 00:45:15;;;;;;;5.83;3.70;;;12.60;61.20;;;;;;6203978;23;20213;-80
2023/03/09 00:47:44;;;;;;;9.97;4.17;;;12.60;61.20;;;;;;6202155;23;20206;-78
2023/03/09 00:50:12;;;;;;;9.00;4.40;;;12.60;61.30;;;;;;6204519;23;20179;-77
2023/03/09 00:52:40;;;;;;;10.87;4.50;;;12.50;61.40;;;;;;6204814;23;20179;-78
2023/03/09 00:55:11;;;;;;;7.63;3.80;;;12.50;61.70;;;;;;6201130;23;20185;-79
2023/03/09 00:57:39;;;;;;;11.40;4.57;;;12.50;61.90;;;;;;6204757;23;20175;-78
2023/03/09 01:00:09;;;;;;;9.97;4.10;;;12.50;62.00;;;;;;6201930;23;20183;-78
2023/03/09 01:02:38;;;;;;;9.20;4.03;;;12.50;62.20;;;;;;6203550;23;20526;-79
2023/03/09 01:05:07;;;;;;;10.10;4.10;;;12.40;62.30;;;;;;6204320;23;20625;-79
2023/03/09 01:07:35;;;;;;;9.70;4.33;;;12.40;62.50;;;;;;6201642;23;20743;-80
2023/03/09 01:10:04;;;;;;;13.40;4.33;;;12.40;62.50;;;;;;6201742;23;20258;-77
2023/03/09 01:12:36;;;;;;;11.03;4.80;;;12.30;62.60;;;;;;6204273;23;20181;-79
2023/03/09 01:15:06;;;;;;;7.13;3.87;;;12.30;62.50;;;;;;6200474;23;20155;-79
2023/03/09 01:17:34;;;;;;;6.07;3.50;;;12.30;62.50;;;;;;6203809;23;20195;-79
2023/03/09 01:20:03;;;;;;;8.70;3.90;;;12.30;62.40;;;;;;6202135;23;20241;-78
2023/03/09 01:22:31;;;;;;;7.83;3.53;;;12.30;62.30;;;;;;6202980;23;20698;-78
2023/03/09 01:25:00;;;;;;;8.77;4.30;;;12.30;62.40;;;;;;6197796;23;20205;-79
2023/03/09 01:27:28;;;;;;;9.37;3.80;;;12.30;62.40;;;;;;6201429;23;20225;-78
2023/03/09 01:29:59;;;;;;;6.90;4.00;;;12.30;62.50;;;;;;6198417;23;20509;-79
2023/03/09 01:32:28;;;;;;;8.10;3.33;;;12.30;62.30;;;;;;6205750;23;20183;-78
2023/03/09 01:34:57;;;;;;;8.77;4.07;;;12.30;62.30;;;;;;6199085;23;20208;-79
2023/03/09 01:37:25;;;;;;;6.77;3.77;;;12.30;62.30;;;;;;6204409;23;20652;-79
2023/03/09 01:39:54;;;;;;;7.10;4.00;;;12.30;62.40;;;;;;6201919;23;20245;-78
2023/03/09 01:42:22;;;;;;;9.57;4.40;;;12.30;62.30;;;;;;6201529;23;20636;-79
2023/03/09 01:45:31;;;;;;;8.57;4.20;;;12.20;62.30;;;;;;6203055;23;20454;-79
2023/03/09 01:48:00;;;;;;;7.03;4.17;;;12.20;62.20;;;;;;6200466;23;20198;-79
2023/03/09 01:50:33;;;;;;;12.03;4.33;;;12.20;62.20;;;;;;6203317;23;20245;-80
2023/03/09 01:53:05;;;;;;;8.87;4.17;;;12.20;62.20;;;;;;6200364;23;20229;-79
2023/03/09 01:55:39;;;;;;;10.33;4.37;;;12.20;62.10;;;;;;6200437;23;20509;-78
2023/03/09 01:58:10;;;;;;;11.87;4.37;;;12.10;62.10;;;;;;6203437;23;20179;-79
2023/03/09 02:00:44;;;;;;;8.70;3.47;;;12.10;62.10;;;;;;6203043;23;20605;-79
2023/03/09 02:03:16;;;;;;;7.93;3.90;;;12.10;62.20;;;;;;6202243;23;20235;-79
2023/03/09 02:05:48;;;;;;;6.60;3.67;;;12.10;62.20;;;;;;6202309;23;20163;-79
2023/03/09 02:08:18;;;;;;;11.03;4.60;;;12.00;62.20;;;;;;6200582;23;20742;-78
2023/03/09 02:10:50;;;;;;;10.33;4.77;;;12.10;62.30;;;;;;6202239;23;20518;-79
2023/03/09 02:13:22;;;;;;;7.93;4.47;;;11.90;62.30;;;;;;6203827;23;20182;-79
2023/03/09 02:15:52;;;;;;;10.33;4.90;;;11.90;62.60;;;;;;6201123;23;20241;-79
2023/03/09 02:18:21;;;;;;;12.83;4.80;;;11.90;62.70;;;;;;6204633;23;20199;-78
2023/03/09 02:20:58;;;;;;;7.20;4.47;;;11.80;62.80;;;;;;6201935;23;20175;-78
2023/03/09 02:23:34;;;;;;;9.77;4.57;;;11.80;63.10;;;;;;6202187;23;20466;-78
2023/03/09 02:26:12;;;;;;;12.10;5.23;;;11.80;63.20;;;;;;6203353;23;20185;-80
2023/03/09 02:28:42;;;;;;;12.77;5.20;;;11.70;63.30;;;;;;6201773;23;20156;-78
2023/03/09 02:31:12;;;;;;;10.17;4.50;;;11.70;63.40;;;;;;6205048;23;20205;-78
2023/03/09 02:33:41;;;;;;;8.30;4.73;;;11.60;63.50;;;;;;6202264;23;20706;-78
2023/03/09 02:36:10;;;;;;;10.27;4.63;;;11.60;63.60;;;;;;6201914;23;20179;-79
2023/03/09 02:38:38;;;;;;;14.93;4.70;;;11.60;63.60;;;;;;6203113;23;20191;-79
2023/03/09 02:41:11;;;;;;;8.63;4.30;;;11.60;63.80;;;;;;6201614;23;20178;-78
2023/03/09 02:43:48;;;;;;;9.03;4.10;;;11.50;63.80;;;;;;6203169;23;20160;-78
2023/03/09 02:46:17;;;;;;;8.63;4.27;;;11.50;63.90;;;;;;6201831;23;20464;-79
2023/03/09 02:48:45;;;;;;;8.20;4.27;;;11.50;64.00;;;;;;6203659;23;20201;-79
2023/03/09 02:51:14;;;;;;;9.90;4.23;;;11.40;64.00;;;;;;6198634;23;20183;-79
2023/03/09 02:53:42;;;;;;;7.37;4.00;;;11.40;64.00;;;;;;6202741;23;20213;-79
2023/03/09 02:56:10;;;;;;;8.70;4.03;;;11.40;64.10;;;;;;6197249;23;20179;-79
2023/03/09 02:58:39;;;;;;;10.80;3.80;;;11.40;64.10;;;;;;6202044;23;20206;-79
2023/03/09 03:01:09;;;;;;;11.23;3.83;;;11.40;64.20;;;;;;6197786;23;20183;-78
2023/03/09 03:03:37;;;;;;;6.57;3.97;;;11.40;64.30;;;;;;6203939;23;20488;-79
2023/03/09 03:06:06;;;;;;;9.67;3.73;;;11.40;64.30;;;;;;6201759;23;20258;-78
2023/03/09 03:08:35;;;;;;;10.97;3.90;;;11.40;64.30;;;;;;6203156;23;20203;-78
2023/03/09 03:11:05;;;;;;;8.73;4.23;;;11.40;64.30;;;;;;6200416;23;20251;-78
2023/03/09 03:13:33;;;;;;;11.87;3.67;;;11.40;64.40;;;;;;6201244;23;20612;-78
2023/03/09 03:16:03;;;;;;;6.33;3.87;;;11.40;64.40;;;;;;6202640;23;20175;-79
2023/03/09 03:18:32;;;;;;;7.33;3.73;;;11.40;64.50;;;;;;6200284;23;20195;-79
2023/03/09 03:21:01;;;;;;;5.67;3.40;;;11.40;64.70;;;;;;6204039;23;20175;-78
2023/03/09 03:23:30;;;;;;;6.77;3.37;;;11.30;64.80;;;;;;6202913;23;20178;-78
2023/03/09 03:26:06;;;;;;;9.83;3.83;;;11.40;64.70;;;;;;6203902;23;20195;-77
2023/03/09 03:28:34;;;;;;;11.57;4.43;;;11.40;64.90;;;;;;6202698;23;20618;-78
2023/03/09 03:31:03;;;;;;;11.30;4.13;;;11.30;64.90;;;;;;6204944;23;20229;-77
2023/03/09 03:33:34;;;;;;;8.87;4.00;;;11.30;65.00;;;;;;6203912;23;20725;-79
2023/03/09 03:36:02;;;;;;;12.03;4.53;;;11.30;65.20;;;;;;6203779;23;20164;-78
2023/03/09 03:38:31;;;;;;;10.00;5.20;;;11.20;65.50;;;;;;6202734;23;20195;-78
2023/03/09 03:40:59;;;;;;;9.50;4.73;;;11.20;65.70;;;;;;6204697;23;20182;-77
2023/03/09 03:43:27;;;;;;;8.60;4.73;;;11.20;65.80;;;;;;6202631;23;20979;-79
2023/03/09 03:45:56;;;;;;;12.73;4.70;;;11.20;66.10;;;;;;6203679;23;20171;-79
2023/03/09 03:48:24;;;;;;;16.00;5.50;;;11.20;66.10;;;;;;6205782;23;20273;-79
2023/03/09 03:50:54;;;;;;;10.13;4.27;;;11.10;66.20;;;;;;6201325;23;20183;-78
2023/03/09 03:53:22;;;;;;;10.67;4.80;;;11.10;66.60;;;;;;6204349;23;20559;-78
2023/03/09 03:55:51;;;;;;;12.23;4.83;;;11.10;66.60;;;;;;6202921;23;20179;-78
2023/03/09 03:58:19;;;;;;;12.73;5.03;;;11.10;66.60;;;;;;6202907;23;20195;-78
2023/03/09 04:00:47;;;;;;;10.43;5.10;;;11.00;66.80;;;;;;6205789;23;20175;-80
2023/03/09 04:03:16;;;;;;;12.97;4.90;;;11.00;66.80;;;;;;6203628;23;20237;-80
2023/03/09 04:05:44;;;;;;;9.97;4.93;;;11.00;67.10;;;;;;6203017;23;20184;-79
2023/03/09 04:08:14;;;;;;;12.37;5.10;;;11.00;67.40;;;;;;6205696;23;20197;-79
2023/03/09 04:10:42;;;;;;;11.30;5.57;;;11.00;67.20;;;;;;6202725;23;20233;-79
2023/03/09 04:13:14;;;;;;;8.07;5.30;;;10.90;67.40;;;;;;6205470;23;20166;-77
2023/03/09 04:15:43;;;;;;;9.60;4.53;;;10.90;67.40;;;;;;6204296;23;20175;-79
2023/03/09 04:18:11;;;;;;;11.33;4.83;;;10.90;67.80;;;;;;6203328;23;20202;-78
2023/03/09 04:20:41;;;;;;;10.30;4.97;;;10.90;67.90;;;;;;6203008;23;20357;-79
2023/03/09 04:23:10;;;;;;;12.10;6.23;;;10.90;68.30;;;;;;6202541;23;20233;-78
2023/03/09 04:25:40;;;;;;;11.10;4.40;;;10.90;68.40;;;;;;6202175;23;20675;-78
2023/03/09 04:28:09;;;;;;;10.30;4.53;;;10.90;68.70;;;;;;6205141;23;20620;-77
2023/03/09 04:30:37;;;;;;;9.37;4.67;;;10.80;69.00;;;;;;6203020;23;20175;-79
2023/03/09 04:33:05;;;;;;;12.80;4.80;;;10.80;68.80;;;;;;6204649;23;20175;-78
2023/03/09 04:35:34;;;;;;;13.53;4.40;;;10.80;69.00;;;;;;6203026;23;20174;-79
2023/03/09 04:38:02;;;;;;;10.70;4.87;;;10.80;69.20;;;;;;6200681;23;20274;-78
2023/03/09 04:40:32;;;;;;;9.83;5.10;;;10.80;69.20;;;;;;6203516;23;20222;-79
2023/03/09 04:43:02;;;;;;;11.97;5.07;;;10.80;69.20;;;;;;6201165;23;20483;-78
2023/03/09 04:45:30;;;;;;;12.27;5.57;;;10.80;69.20;;;;;;6202664;23;20179;-78
2023/03/09 04:47:59;;;;;;;9.30;4.93;;;10.80;69.40;;;;;;6201246;23;20175;-77
2023/03/09 04:50:28;;;;;;;11.33;5.17;;;10.80;69.50;;;;;;6200314;23;20186;-79
2023/03/09 04:52:57;;;;;;;9.97;5.40;;;10.80;69.70;;;;;;6204828;23;20179;-79
2023/03/09 04:55:25;;;;;;;11.83;5.13;;;10.70;69.50;;;;;;6201642;23;20183;-78
2023/03/09 04:57:54;;;;;;;12.00;5.50;;;10.80;69.70;;;;;;6203395;23;20174;-79
2023/03/09 05:00:25;;;;;;;13.27;6.10;;;10.70;69.80;;;;;;6202344;23;20233;-78
2023/03/09 05:02:53;;;;;;;8.77;5.70;;;10.70;70.20;;;;;;6203484;23;20225;-77
2023/03/09 05:05:21;;;;;;;10.43;5.90;;;10.70;70.00;;;;;;6201620;23;20175;-79
2023/03/09 05:07:50;;;;;;;10.27;4.90;;;10.70;71.10;;;;;;6205552;23;20257;-79
2023/03/09 05:10:18;;;;;;;9.17;5.03;;;10.70;70.50;;;;;;6201112;23;20929;-78
2023/03/09 05:12:47;;;;;;;9.40;5.30;;;10.70;70.60;;;;;;6204495;23;20234;-79
2023/03/09 05:15:24;;;;;;;8.37;4.93;;;10.70;70.40;;;;;;6203227;23;20302;-78
2023/03/09 05:17:52;;;;;;;13.47;5.77;;;10.70;70.60;;;;;;6200869;23;20191;-77
2023/03/09 05:20:21;;;;;;;10.83;5.27;;;10.70;70.80;;;;;;6201200;23;20230;-78
2023/03/09 05:22:54;;;;;;;10.53;5.00;;;10.70;70.80;;;;;;6203676;23;20164;-77
2023/03/09 05:25:23;;;;;;;9.33;5.03;;;10.70;71.10;;;;;;6203856;23;20167;-76
2023/03/09 05:27:51;;;;;;;12.07;5.80;;;10.80;70.90;;;;;;6206054;23;20237;-77
2023/03/09 05:30:21;;;;;;;10.00;5.00;;;10.80;71.00;;;;;;6202607;23;20183;-77
2023/03/09 05:32:51;;;;;;;11.40;4.93;;;10.80;71.30;;;;;;6201756;23;20635;-78
2023/03/09 05:35:20;;;;;;;14.63;5.40;;;10.80;71.20;;;;;;6203963;23;20190;-77
2023/03/09 05:37:49;;;;;;;9.67;4.43;;;10.90;71.60;;;;;;6202850;23;20206;-77
2023/03/09 05:40:21;;;;;;;13.97;5.43;;;10.90;71.50;;;;;;6205312;23;20220;-78
2023/03/09 05:42:49;;;;;;;13.80;5.53;;;10.90;71.40;;;;;;6205853;23;20214;-78
2023/03/09 05:45:18;;;;;;;9.43;4.70;;;10.90;71.60;;;;;;6206230;23;20225;-78
2023/03/09 05:47:46;;;;;;;10.00;4.13;;;11.00;71.80;;;;;;6205650;23;20202;-77
2023/03/09 05:50:17;;;;;;;17.67;5.47;;;11.00;72.00;;;;;;6203677;23;20221;-77
2023/03/09 05:52:45;;;;;;;15.90;4.60;;;11.00;72.10;;;;;;6203456;23;20163;-77
2023/03/09 05:55:13;;;;;;;8.33;4.07;;;11.10;71.90;;;;;;6204737;23;20174;-77
2023/03/09 05:57:42;;;;;;;12.43;4.77;;;11.20;71.90;;;;;;6202525;23;20274;-77
2023/03/09 06:00:11;;;;;;;7.67;4.27;;;11.20;72.10;;;;;;6203475;23;20202;-77
2023/03/09 06:02:40;;;;;;;12.43;4.80;;;11.20;72.10;;;;;;6206539;23;20217;-78
2023/03/09 06:05:11;;;;;;;9.20;5.00;;;11.30;72.10;;;;;;6200554;23;20190;-82
2023/03/09 06:07:42;;;;;;;10.43;4.77;;;11.40;72.00;;;;;;6205098;23;20238;-77
2023/03/09 06:10:12;;;;;;;10.07;4.93;;;11.40;72.20;;;;;;6200496;23;20159;-77
2023/03/09 06:12:41;;;;;;;8.77;4.17;;;11.40;72.40;;;;;;6202763;23;20577;-78
2023/03/09 06:15:11;;;;;;;9.80;4.17;;;11.50;72.70;;;;;;6203855;23;20179;-77
2023/03/09 06:17:39;;;;;;;9.77;4.73;;;11.60;72.60;;;;;;6201724;23;20481;-77
2023/03/09 06:20:09;;;;;;;12.03;5.30;;;11.70;72.60;;;;;;6202570;23;20195;-77
2023/03/09 06:22:39;;;;;;;9.80;4.20;;;11.70;72.50;;;;;;6202512;23;20551;-77
2023/03/09 06:25:09;;;;;;;10.30;4.23;;;11.80;72.40;;;;;;6203895;23;20175;-78
2023/03/09 06:27:38;;;;;;;16.47;4.10;;;11.80;72.00;;;;;;6202728;23;20165;-78
2023/03/09 06:30:08;;;;;;;9.23;4.20;;;11.90;72.10;;;;;;6202443;23;20179;-80
2023/03/09 06:32:36;;;;;;;11.70;4.70;;;12.00;71.70;;;;;;6204914;23;20547;-78
2023/03/09 06:35:05;;;;;;;16.20;4.80;;;12.10;71.70;;;;;;6202394;23;20207;-77
2023/03/09 06:37:34;;;;;;;8.00;4.00;;;12.20;71.60;;;;;;6204301;23;20177;-78
2023/03/09 06:40:06;;;;;;;9.30;4.57;;;12.30;72.60;;;;;;6203423;23;20737;-78
2023/03/09 06:42:36;;;;;;;8.00;3.50;;;12.40;71.60;;;;;;6204973;23;20167;-78
2023/03/09 06:45:05;;;;;;;7.93;3.83;;;12.50;71.60;;;;;;6202092;23;20674;-78
2023/03/09 06:47:34;;;;;;;7.57;3.53;;;12.60;71.50;;;;;;6202152;23;20262;-77
2023/03/09 06:50:02;;;;;;;8.37;3.93;;;12.60;71.20;;;;;;6204637;23;20233;-77
2023/03/09 06:52:34;;;;;;;6.00;3.43;;;12.70;70.90;;;;;;6202165;23;20186;-78
2023/03/09 06:55:02;;;;;;;8.03;3.93;;;12.80;70.90;;;;;;6202873;23;20179;-77
2023/03/09 06:57:47;;;;;;;8.33;3.90;;;12.90;70.90;;;;;;6204639;23;20531;-76
2023/03/09 07:00:16;;;;;;;7.43;3.73;;;13.00;70.80;;;;;;6202138;23;20179;-77
2023/03/09 07:02:45;;;;;;;7.57;3.90;;;13.10;70.70;;;;;;6207221;23;20175;-77
2023/03/09 07:05:13;;;;;;;5.77;3.17;;;13.30;70.70;;;;;;6206708;23;20237;-77
2023/03/09 07:07:42;;;;;;;12.03;3.47;;;13.40;70.50;;;;;;6205400;23;20552;-75
2023/03/09 07:14:19;;;;;;;6.83;3.03;;;13.60;69.80;;;;;;6103696;23;20206;-77
2023/03/09 07:16:52;;;;;;;5.63;3.00;;;13.80;69.10;;;;;;6205613;23;20166;-77
2023/03/09 07:19:20;;;;;;;5.43;2.90;;;13.90;68.60;;;;;;6204945;23;20693;-78
2023/03/09 07:21:49;;;;;;;5.73;2.90;;;14.00;68.30;;;;;;6207554;23;20175;-78
2023/03/09 07:24:18;;;;;;;5.17;2.87;;;14.20;68.20;;;;;;6209509;23;20186;-77
2023/03/09 07:26:48;;;;;;;5.77;3.07;;;14.30;67.90;;;;;;6208678;23;20183;-78
2023/03/09 07:29:16;;;;;;;6.43;2.50;;;14.40;67.40;;;;;;6207775;23;20186;-79
2023/03/09 07:31:46;;;;;;;7.17;2.90;;;14.50;67.20;;;;;;6209056;23;20183;-77
2023/03/09 07:38:29;;;;;;;7.23;3.50;;;14.80;66.80;;;;;;6085364;23;20181;-82
2023/03/09 07:41:29;;;;;;;5.70;3.27;;;15.00;66.30;;;;;;6104181;23;20199;-80
2023/03/09 07:44:36;;;;;;;6.87;2.83;;;15.00;65.80;;;;;;6172032;23;20190;-81
2023/03/09 07:47:06;;;;;;;5.10;2.70;;;15.20;66.10;;;;;;6204700;23;20171;-77
2023/03/09 07:49:35;;;;;;;7.20;3.13;;;15.30;64.90;;;;;;6204898;23;20558;-79
2023/03/09 07:52:03;;;;;;;6.67;2.60;;;15.30;64.60;;;;;;6204702;23;20178;-79
2023/03/09 07:54:33;;;;;;;6.33;3.33;;;15.40;64.20;;;;;;6208928;23;20171;-79
2023/03/09 07:57:01;;;;;;;5.50;2.73;;;15.50;64.10;;;;;;6214335;23;20175;-76
2023/03/09 07:59:29;;;;;;;8.83;2.97;;;15.50;64.20;;;;;;6216925;23;20214;-77
2023/03/09 08:01:58;;;;;;;5.57;3.00;;;15.50;64.00;;;;;;6206880;23;20176;-76
2023/03/09 08:04:28;;;;;;;8.60;3.00;;;15.60;63.80;;;;;;6207883;23;20616;-76
2023/03/09 08:06:56;;;;;;;6.53;3.13;;;15.70;63.90;;;;;;6208201;23;20523;-77
2023/03/09 08:09:24;;;;;;;6.20;3.50;;;15.80;63.50;;;;;;6208194;23;20672;-78
2023/03/09 08:11:54;;;;;;;5.03;2.73;;;15.80;63.00;;;;;;6209852;23;20175;-78
2023/03/09 08:14:22;;;;;;;5.80;2.67;;;15.90;63.00;;;;;;6209431;23;20190;-77
2023/03/09 08:16:51;;;;;;;6.20;2.50;;;15.90;62.30;;;;;;6207834;23;20175;-78
2023/03/09 08:19:21;;;;;;;4.50;2.67;;;16.00;62.00;;;;;;6210087;23;20717;-78
2023/03/09 08:21:51;;;;;;;5.27;2.30;;;16.00;61.40;;;;;;6208049;23;20668;-78
2023/03/09 08:24:19;;;;;;;6.33;3.00;;;16.00;62.00;;;;;;6206841;23;20229;-77
2023/03/09 08:26:50;;;;;;;4.93;2.60;;;16.10;60.90;;;;;;6206351;23;20165;-78
2023/03/09 08:29:19;;;;;;;5.73;2.83;;;16.10;60.30;;;;;;6210503;23;20175;-79
2023/03/09 08:31:47;;;;;;;7.97;2.33;;;16.20;60.90;;;;;;6208897;23;20643;-79
2023/03/09 08:34:18;;;;;;;6.50;2.23;;;16.30;60.30;;;;;;6216199;23;20211;-79
2023/03/09 08:36:47;;;;;;;8.63;2.60;;;16.30;60.10;;;;;;6207947;23;20680;-77
2023/03/09 08:39:17;;;;;;;5.37;2.67;;;16.30;59.30;;;;;;6212034;23;20186;-78
2023/03/09 08:41:45;;;;;;;5.30;2.20;;;16.30;59.50;;;;;;6209845;23;20245;-78
2023/03/09 08:44:14;;;;;;;8.07;2.60;;;16.40;59.40;;;;;;6207810;23;20179;-79
2023/03/09 08:47:37;;;;;;;8.00;2.37;;;16.40;58.90;;;;;;6209490;23;20583;-80
2023/03/09 08:50:13;;;;;;;7.00;2.37;;;16.50;59.50;;;;;;6194047;23;20233;-78
2023/03/09 08:52:42;;;;;;;4.47;2.10;;;16.70;59.20;;;;;;6205119;23;20648;-79
2023/03/09 08:55:12;;;;;;;7.27;2.60;;;16.70;58.80;;;;;;6210625;23;20178;-79
2023/03/09 08:57:41;;;;;;;6.07;2.57;;;16.70;59.10;;;;;;6207006;23;20262;-78
2023/03/09 09:00:11;;;;;;;6.23;2.43;;;16.70;59.30;;;;;;6212018;23;20534;-79
2023/03/09 09:02:40;;;;;;;5.23;2.30;;;16.80;59.30;;;;;;6208481;23;20221;-79
2023/03/09 09:05:09;;;;;;;5.43;2.30;;;16.90;59.10;;;;;;6204998;23;20179;-78
2023/03/09 09:07:38;;;;;;;8.40;2.73;;;17.00;59.10;;;;;;6203133;23;20296;-78
2023/03/09 09:10:07;;;;;;;4.57;2.23;;;17.10;59.70;;;;;;6206515;23;20619;-77
2023/03/09 09:12:44;;;;;;;8.70;2.70;;;17.20;59.20;;;;;;6206157;23;20163;-77
2023/03/09 09:15:15;;;;;;;8.50;2.57;;;17.30;59.00;;;;;;6208183;23;20163;-78
2023/03/09 09:17:43;;;;;;;5.47;2.50;;;17.30;58.80;;;;;;6204229;23;20194;-78
2023/03/09 09:20:16;;;;;;;5.90;2.10;;;17.40;58.40;;;;;;6203869;23;20521;-79
2023/03/09 09:22:44;;;;;;;5.63;1.80;;;17.50;58.60;;;;;;6205892;23;20167;-78
2023/03/09 09:25:12;;;;;;;6.80;2.00;;;17.60;58.10;;;;;;6206965;23;20229;-77
2023/03/09 09:27:41;;;;;;;7.97;2.33;;;17.60;58.40;;;;;;6203996;23;20640;-78
2023/03/09 09:30:16;;;;;;;3.30;1.60;;;17.70;58.10;;;;;;6208743;23;20501;-79
2023/03/09 09:32:48;;;;;;;5.33;1.53;;;17.80;58.00;;;;;;6206832;23;20187;-79
2023/03/09 09:35:16;;;;;;;5.47;2.20;;;17.90;58.40;;;;;;6207496;23;20582;-75
2023/03/09 09:37:45;;;;;;;3.63;1.73;;;18.10;58.10;;;;;;6207662;23;20179;-76
2023/03/09 09:47:33;;;;;;;5.90;1.93;;;18.30;56.40;;;;;;6204020;23;20174;-77
2023/03/09 09:50:02;;;;;;;3.63;1.87;;;18.40;56.80;;;;;;6201999;23;20214;-78
2023/03/09 09:52:46;;;;;;;4.93;1.70;;;18.60;56.60;;;;;;6201757;23;20659;-75
2023/03/09 09:55:22;;;;;;;3.40;1.83;;;18.70;56.50;;;;;;6200766;23;20793;-79
2023/03/09 09:57:58;;;;;;;6.23;2.07;;;18.70;56.40;;;;;;6201121;23;20221;-80
2023/03/09 10:00:34;;;;;;;2.70;1.50;;;18.70;56.10;;;;;;6204848;23;20596;-79
2023/03/09 10:03:19;;;;;;;7.03;2.17;;;18.80;56.20;;;;;;6202413;23;20155;-78
2023/03/09 10:10:35;;;;;;;7.53;2.57;;;18.90;56.10;;;;;;6105336;23;20666;-82
2023/03/09 10:13:12;;;;;;;6.03;1.60;;;19.00;56.50;;;;;;6020864;23;20707;-81
2023/03/09 10:15:40;;;;;;;4.30;1.93;;;19.00;56.80;;;;;;6104565;23;20173;-78
2023/03/09 10:18:15;;;;;;;6.77;2.23;;;19.10;56.00;;;;;;6114419;23;20187;-79
2023/03/09 10:20:48;;;;;;;4.87;2.00;;;19.10;56.00;;;;;;6115188;23;20564;-78
2023/03/09 10:23:22;;;;;;;3.72;1.45;;;19.20;55.50;;;;;;6108999;23;20169;-80
2023/03/09 10:25:53;;;;;;;4.40;2.15;;;19.30;55.20;;;;;;6109116;23;20210;-77
2023/03/09 10:28:28;;;;;;;4.18;1.70;;;19.40;55.10;;;;;;6109124;23;20161;-76
2023/03/09 10:31:02;;;;;;;8.25;1.45;;;19.40;54.70;;;;;;6111043;23;20211;-76
2023/03/09 10:33:54;;;;;;;8.10;1.80;;;19.50;54.60;;;;;;6113722;23;20189;-78
2023/03/09 10:36:25;;;;;;;4.23;1.57;;;19.50;54.50;;;;;;6112606;23;20644;-79
2023/03/09 10:38:57;;;;;;;4.47;1.60;;;19.60;54.70;;;;;;6118377;23;20244;-78
2023/03/09 10:41:29;;;;;;;4.78;1.77;;;19.60;54.60;;;;;;6114424;23;20181;-78
2023/03/09 10:43:59;;;;;;;17.08;1.88;;;19.70;54.70;;;;;;6135127;23;20180;-78
2023/03/09 10:46:28;;;;;;;4.47;1.80;;;19.80;54.30;;;;;;6171146;23;20475;-80
2023/03/09 10:49:14;;;;;;;4.18;1.27;;;19.80;53.80;;;;;;6178037;23;20175;-79
2023/03/09 10:51:45;;;;;;;4.00;1.50;;;19.90;53.90;;;;;;6175826;23;20156;-78
2023/03/09 10:54:27;;;;;;;5.28;1.25;;;19.90;53.80;;;;;;6173338;23;20172;-79
2023/03/09 10:56:55;;;;;;;4.55;1.73;;;19.90;53.90;;;;;;6176665;23;20164;-79
2023/03/09 10:59:25;;;;;;;5.93;1.30;;;19.90;54.00;;;;;;6177294;23;20525;-77
2023/03/09 11:01:57;;;;;;;3.53;1.70;;;20.00;53.90;;;;;;6183055;23;20184;-79
2023/03/09 11:04:37;;;;;;;2.30;1.30;;;20.00;53.60;;;;;;6179365;23;20505;-81
2023/03/09 11:11:05;;;;;;;5.60;2.70;;;20.20;53.90;;;;;;6182493;23;20231;-77
2023/03/09 11:13:34;;;;;;;4.15;1.80;;;20.20;53.70;;;;;;6201307;23;20615;-77
2023/03/09 11:16:13;;;;;;;6.22;1.98;;;20.20;53.50;;;;;;6197464;23;20229;-78
2023/03/09 11:18:43;;;;;;;5.85;2.05;;;20.20;53.70;;;;;;6197366;23;20163;-78
2023/03/09 11:21:22;;;;;;;5.07;1.73;;;20.30;53.70;;;;;;6198478;23;20476;-76
2023/03/09 11:23:54;;;;;;;3.88;1.67;;;20.20;53.60;;;;;;6198799;23;20167;-76
2023/03/09 11:26:26;;;;;;;4.15;2.05;;;20.20;53.50;;;;;;6203812;23;20226;-74
2023/03/09 11:28:59;;;;;;;10.05;1.92;;;20.30;53.40;;;;;;6203046;23;20167;-77
2023/03/09 11:31:36;;;;;;;8.65;1.60;;;20.30;53.80;;;;;;6198625;23;20658;-79
2023/03/09 11:34:08;;;;;;;3.22;1.50;;;20.40;54.10;;;;;;6202488;23;20159;-78
2023/03/09 11:36:43;;;;;;;5.32;1.67;;;20.50;54.30;;;;;;6199572;23;20666;-78
2023/03/09 11:39:19;;;;;;;3.38;1.77;;;20.50;54.00;;;;;;6198424;23;20509;-79
2023/03/09 11:41:50;;;;;;;4.03;1.65;;;20.50;53.80;;;;;;6200369;23;20187;-79
2023/03/09 11:44:25;;;;;;;7.55;1.50;;;20.50;53.40;;;;;;6202312;23;20175;-78
2023/03/09 11:47:00;;;;;;;2.80;1.40;;;20.50;53.50;;;;;;6199530;23;20163;-79
2023/03/09 11:49:30;;;;;;;3.65;1.45;;;20.60;54.20;;;;;;6199878;23;20221;-77
2023/03/09 11:52:00;;;;;;;3.42;1.20;;;20.60;53.00;;;;;;6202568;23;20217;-81
2023/03/09 11:54:33;;;;;;;7.28;2.20;;;20.60;53.30;;;;;;6199619;23;20178;-80
2023/03/09 11:57:05;;;;;;;10.65;2.00;;;20.50;53.20;;;;;;6201021;23;20469;-78
2023/03/09 11:59:42;;;;;;;10.77;2.20;;;20.60;53.40;;;;;;6199790;23;20593;-79
2023/03/09 12:02:19;;;;;;;4.32;1.40;;;20.60;53.10;;;;;;6199015;23;20190;-77
2023/03/09 12:04:52;;;;;;;5.32;1.70;;;20.50;52.70;;;;;;6201518;23;20159;-81
2023/03/09 12:07:26;;;;;;;4.03;1.38;;;20.50;53.00;;;;;;6201636;23;20628;-77
2023/03/09 12:10:01;;;;;;;4.40;2.00;;;20.50;53.20;;;;;;6205523;23;20265;-78
2023/03/09 12:12:36;;;;;;;5.75;1.60;;;20.50;53.40;;;;;;6200891;23;20163;-79
2023/03/09 12:15:13;;;;;;;5.78;1.83;;;20.60;53.10;;;;;;6201190;23;20159;-79
2023/03/09 12:17:48;;;;;;;2.67;1.42;;;20.60;53.50;;;;;;6203491;23;20159;-79
2023/03/09 12:20:28;;;;;;;7.70;1.60;;;20.60;53.20;;;;;;6200906;23;20176;-79
2023/03/09 12:22:59;;;;;;;3.45;1.25;;;20.60;53.30;;;;;;6198006;23;20245;-75
2023/03/09 12:25:29;;;;;;;3.38;1.38;;;20.70;53.50;;;;;;6202441;23;20596;-76
2023/03/09 12:28:01;;;;;;;5.53;1.30;;;20.80;53.60;;;;;;6205503;23;20167;-77
2023/03/09 12:30:31;;;;;;;6.03;2.55;;;20.90;53.10;;;;;;6202200;23;20155;-76
2023/03/09 12:33:02;;;;;;;35.28;3.42;;;20.90;52.90;;;;;;6200550;23;20190;-76
2023/03/09 12:36:00;;;;;;;3.63;1.63;;;20.90;53.00;;;;;;6201212;23;20225;-77
2023/03/09 12:38:29;;;;;;;3.67;1.10;;;21.00;53.10;;;;;;6203664;23;20238;-75
2023/03/09 12:40:58;;;;;;;2.67;1.40;;;21.10;52.90;;;;;;6201312;23;20507;-77
2023/03/09 12:43:53;;;;;;;2.03;1.05;;;21.30;52.50;;;;;;6199678;23;20512;-77
2023/03/09 12:47:02;;;;;;;2.33;1.42;;;21.40;52.40;;;;;;6202448;23;20628;-78
2023/03/09 12:49:34;;;;;;;3.80;1.25;;;21.60;52.40;;;;;;6199105;23;20225;-77
2023/03/09 12:52:45;;;;;;;4.82;1.50;;;21.70;52.10;;;;;;6201448;23;20159;-77
2023/03/09 12:55:20;;;;;;;2.50;1.20;;;21.80;52.20;;;;;;6144296;23;20542;-76
2023/03/09 12:57:50;;;;;;;3.22;1.60;;;21.90;51.90;;;;;;6198061;23;20251;-78
2023/03/09 13:00:30;;;;;;;3.22;1.30;;;21.90;51.60;;;;;;6201450;23;20237;-76
2023/03/09 13:03:07;;;;;;;4.97;1.27;;;21.80;51.30;;;;;;6199290;23;20187;-76
2023/03/09 13:05:45;;;;;;;3.97;1.60;;;21.90;51.30;;;;;;6197711;23;20163;-77
2023/03/09 13:08:36;;;;;;;4.20;1.30;;;21.90;51.20;;;;;;6206485;23;20167;-77
2023/03/09 13:11:40;;;;;;;4.10;1.30;;;21.80;50.80;;;;;;6193864;23;20702;-79
2023/03/09 13:14:13;;;;;;;4.53;1.20;;;21.80;51.10;;;;;;6107324;23;20196;-77
2023/03/09 13:16:53;;;;;;;6.82;1.33;;;21.90;51.40;;;;;;6107007;23;20165;-78
2023/03/09 13:19:49;;;;;;;6.32;1.40;;;21.80;51.20;;;;;;6163402;23;20178;-77
2023/03/09 13:22:21;;;;;;;4.53;1.40;;;21.80;51.30;;;;;;6199552;23;20171;-77
2023/03/09 13:24:51;;;;;;;7.88;1.60;;;21.80;50.80;;;;;;6203834;23;20163;-77
2023/03/09 13:27:24;;;;;;;3.25;1.80;;;21.70;50.40;;;;;;6205917;23;20167;-78
2023/03/09 13:29:55;;;;;;;3.67;1.40;;;21.70;50.40;;;;;;6197754;23;20171;-76